Time;durP1;ratioP1;P1;durP2;ratioP2;P2;SDS_P1;SDS_P2;PMS_P1;PMS_P2;Temp;Humidity;BMP_temperature;BMP_pressure;BME280_temperature;BME280_humidity;BME280_pressure;Samples;Min_cycle;Max_cycle;Signal;HPM_P1;HPM_P2
2022/01/20 00:01:33;;;;;;;27.30;16.10;;;;;;;2.09;77.57;99513.84;130343;1267;109076;-78
2022/01/20 00:04:45;;;;;;;28.00;17.10;;;;;;;2.05;77.40;99508.69;130456;1266;108492;-77
2022/01/20 00:08:05;;;;;;;32.70;18.30;;;;;;;2.04;77.57;99512.52;130407;1267;107634;-76
2022/01/20 00:28:13;;;;;;;26.60;16.30;;;;;;;2.26;77.45;99457.63;130374;1267;108104;-78
2022/01/20 00:31:45;;;;;;;27.40;16.80;;;;;;;2.25;77.42;99452.56;130391;1267;108865;-78
2022/01/20 00:35:17;;;;;;;28.00;16.90;;;;;;;2.21;77.17;99446.61;130354;1267;108729;-79
2022/01/20 00:38:24;;;;;;;29.40;17.00;;;;;;;2.18;77.39;99433.50;130446;1267;108604;-79
2022/01/20 00:41:29;;;;;;;28.10;16.90;;;;;;;2.14;77.43;99428.00;130418;1266;109053;-78
2022/01/20 00:44:35;;;;;;;29.70;17.50;;;;;;;2.11;77.41;99423.83;130366;1267;108720;-77
2022/01/20 00:47:41;;;;;;;32.10;18.40;;;;;;;2.09;77.51;99422.05;130382;1267;108735;-78
2022/01/20 00:50:47;;;;;;;26.50;15.60;;;;;;;2.12;77.38;99429.06;130434;1267;108659;-78
2022/01/20 00:53:54;;;;;;;28.60;17.10;;;;;;;2.17;77.42;99423.41;130408;1267;108758;-78
2022/01/20 00:57:00;;;;;;;32.60;17.50;;;;;;;2.20;77.08;99413.00;130378;1267;108688;-76
2022/01/20 01:00:10;;;;;;;30.30;17.70;;;;;;;2.20;77.12;99397.52;130381;1266;107473;-76
2022/01/20 01:03:15;;;;;;;29.20;17.10;;;;;;;2.21;77.16;99401.33;130361;1267;108686;-75
2022/01/20 01:06:26;;;;;;;29.00;17.00;;;;;;;2.19;76.92;99404.99;130436;1267;108677;-74
2022/01/20 01:09:33;;;;;;;29.50;17.50;;;;;;;2.15;77.13;99398.48;130406;1266;108982;-75
2022/01/20 01:12:45;;;;;;;29.10;17.90;;;;;;;2.13;77.22;99391.79;130477;1267;108721;-75
2022/01/20 01:15:51;;;;;;;28.40;17.40;;;;;;;2.12;77.14;99389.06;130551;1267;108499;-74
2022/01/20 01:22:23;;;;;;;32.10;18.40;;;;;;;2.06;77.21;99381.07;130357;1267;108709;-74
2022/01/20 01:25:29;;;;;;;26.80;15.90;;;;;;;2.08;77.48;99378.10;130487;1267;107688;-76
2022/01/20 01:28:36;;;;;;;31.40;17.80;;;;;;;2.13;77.32;99370.84;130515;1267;108747;-77
2022/01/20 01:31:41;;;;;;;30.10;17.90;;;;;;;2.18;77.19;99365.75;130423;1267;108760;-77
2022/01/20 01:34:50;;;;;;;28.80;16.80;;;;;;;2.21;77.21;99356.73;130405;1267;108775;-78
2022/01/20 01:41:28;;;;;;;28.60;17.00;;;;;;;2.21;77.29;99345.89;130385;1267;108823;-76
2022/01/20 01:44:33;;;;;;;28.30;17.00;;;;;;;2.20;77.21;99327.17;130398;1267;108980;-76
2022/01/20 01:47:40;;;;;;;28.30;17.10;;;;;;;2.16;77.24;99321.17;130519;1267;108862;-77
2022/01/20 01:50:45;;;;;;;32.80;18.20;;;;;;;2.13;77.31;99317.58;130398;1266;108917;-77
2022/01/20 01:53:52;;;;;;;32.00;17.80;;;;;;;2.11;77.42;99315.81;130411;1267;107936;-76
2022/01/20 01:57:01;;;;;;;27.10;16.20;;;;;;;2.13;77.53;99308.05;130417;1267;108809;-76
2022/01/20 02:00:13;;;;;;;26.40;16.40;;;;;;;2.18;77.50;99303.81;130491;1267;109143;-76
2022/01/20 02:03:19;;;;;;;27.50;15.80;;;;;;;2.22;77.46;99289.10;130453;1267;109773;-79
2022/01/20 02:06:51;;;;;;;26.10;16.20;;;;;;;2.25;77.67;99285.73;130477;1267;108766;-78
2022/01/20 02:20:13;;;;;;;29.70;16.80;;;;;;;2.19;78.10;99259.05;130332;1267;108766;-77
2022/01/20 02:23:46;;;;;;;29.50;17.10;;;;;;;2.14;78.32;99244.46;130344;1268;108742;-77
2022/01/20 02:26:51;;;;;;;23.90;14.30;;;;;;;2.14;78.49;99247.63;130365;1267;108669;-77
2022/01/20 02:30:03;;;;;;;30.10;17.20;;;;;;;2.19;78.55;99235.34;130391;1267;108859;-76
2022/01/20 02:33:11;;;;;;;25.40;15.70;;;;;;;2.23;78.69;99234.33;130430;1267;108860;-77
2022/01/20 02:36:18;;;;;;;27.20;15.60;;;;;;;2.24;78.63;99222.64;130414;1267;108774;-77
2022/01/20 02:39:44;;;;;;;25.10;16.00;;;;;;;2.25;78.73;99227.63;130369;1267;108791;-76
2022/01/20 02:46:13;;;;;;;27.60;16.70;;;;;;;2.17;79.15;99213.55;130510;1267;108754;-76
2022/01/20 02:49:19;;;;;;;26.00;16.10;;;;;;;2.15;79.47;99211.11;130389;1267;108725;-75
2022/01/20 02:52:27;;;;;;;24.80;14.90;;;;;;;2.14;79.52;99212.06;130461;1266;107600;-77
2022/01/20 02:55:33;;;;;;;24.40;15.50;;;;;;;2.14;79.70;99207.47;130403;1266;108757;-76
2022/01/20 02:58:38;;;;;;;23.80;15.30;;;;;;;2.15;79.75;99199.67;130370;1267;108859;-80
2022/01/20 03:01:44;;;;;;;23.30;15.30;;;;;;;2.17;79.79;99190.74;130380;1267;108880;-77
2022/01/20 03:04:50;;;;;;;24.20;15.40;;;;;;;2.18;79.84;99190.66;130372;1267;109033;-82
2022/01/20 03:08:11;;;;;;;25.40;15.20;;;;;;;2.13;79.98;99183.14;130475;1267;108717;-80
2022/01/20 03:11:16;;;;;;;25.10;14.70;;;;;;;2.11;80.11;99182.08;130395;1266;108645;-81
2022/01/20 03:14:22;;;;;;;20.00;13.00;;;;;;;2.11;80.26;99175.78;130542;1268;108802;-80
2022/01/20 03:17:28;;;;;;;21.60;13.70;;;;;;;2.12;80.35;99175.14;130771;1267;108671;-78
2022/01/20 03:20:34;;;;;;;18.50;12.80;;;;;;;2.16;80.44;99166.30;130445;1268;108790;-81
2022/01/20 03:23:40;;;;;;;20.00;13.30;;;;;;;2.18;80.42;99166.11;130777;1267;108685;-78
2022/01/20 03:26:46;;;;;;;20.10;13.00;;;;;;;2.17;80.53;99161.94;130978;1267;109045;-78
2022/01/20 03:29:51;;;;;;;23.10;13.80;;;;;;;2.14;80.46;99160.25;130653;1267;108821;-81
2022/01/20 03:32:57;;;;;;;20.80;12.80;;;;;;;2.13;80.73;99160.20;130416;1267;107865;-80
2022/01/20 03:36:03;;;;;;;20.20;11.90;;;;;;;2.14;80.61;99157.45;130829;1268;108690;-78
2022/01/20 03:39:27;;;;;;;17.50;11.90;;;;;;;2.21;80.83;99157.92;130462;1267;109014;-81
2022/01/20 03:42:33;;;;;;;18.80;11.90;;;;;;;2.27;80.66;99157.77;130499;1267;108889;-80
2022/01/20 03:45:39;;;;;;;19.50;12.80;;;;;;;2.30;80.67;99159.48;130647;1268;108950;-81
2022/01/20 03:48:51;;;;;;;19.90;12.80;;;;;;;2.30;80.54;99151.77;131260;1267;108786;-82
2022/01/20 03:51:56;;;;;;;;;;;;;;;2.26;80.73;99155.58;130681;1268;108476;-81
2022/01/20 03:55:01;;;;;;;20.30;12.30;;;;;;;2.25;80.87;99148.48;130542;1268;108732;-80
2022/01/20 03:58:12;;;;;;;17.00;11.50;;;;;;;2.26;81.11;99143.14;130374;1268;108885;-78
2022/01/20 04:01:22;;;;;;;15.70;10.40;;;;;;;2.32;81.19;99140.18;130351;1268;108903;-80
2022/01/20 04:04:41;;;;;;;17.20;11.30;;;;;;;2.39;81.13;99146.30;130648;1268;108829;-81
2022/01/20 04:07:53;;;;;;;17.20;11.40;;;;;;;2.43;81.28;99131.94;132029;1266;109038;-81
2022/01/20 04:11:00;;;;;;;18.40;12.30;;;;;;;2.45;81.11;99130.85;130986;1268;108620;-82
2022/01/20 04:14:06;;;;;;;19.40;12.80;;;;;;;2.46;81.22;99129.05;130470;1268;107663;-85
2022/01/20 04:17:17;;;;;;;21.60;13.20;;;;;;;2.45;81.24;99128.46;130566;1266;108670;-86
2022/01/20 04:20:23;;;;;;;20.70;13.50;;;;;;;2.41;81.56;99129.33;130355;1268;108711;-86
2022/01/20 04:23:30;;;;;;;18.80;12.50;;;;;;;2.40;81.54;99133.64;130440;1268;108820;-87
2022/01/20 04:26:38;;;;;;;19.70;12.90;;;;;;;2.43;81.52;99130.02;130447;1268;108864;-86
2022/01/20 04:29:44;;;;;;;19.70;13.10;;;;;;;2.46;81.83;99122.23;130498;1268;108799;-87
2022/01/20 04:32:50;;;;;;;18.80;13.00;;;;;;;2.45;81.62;99116.13;130488;1268;106821;-86
2022/01/20 04:35:55;;;;;;;17.70;11.90;;;;;;;2.46;81.45;99116.91;130537;1268;108854;-87
2022/01/20 04:39:01;;;;;;;19.50;12.80;;;;;;;2.43;81.73;99120.66;130460;1268;107632;-86
2022/01/20 04:42:09;;;;;;;20.40;11.80;;;;;;;2.44;81.63;99126.40;130467;1268;108778;-86
2022/01/20 04:45:20;;;;;;;15.10;10.00;;;;;;;2.47;81.72;99120.58;130422;1268;108823;-86
2022/01/20 04:48:32;;;;;;;16.40;10.90;;;;;;;2.50;81.72;99116.77;130415;1268;108939;-85
2022/01/20 04:58:23;;;;;;;14.50;10.50;;;;;;;2.55;81.66;99115.95;130416;1268;107660;-86
2022/01/20 05:01:29;;;;;;;15.10;9.80;;;;;;;2.52;81.70;99112.70;130415;1268;108859;-86
2022/01/20 05:05:07;;;;;;;13.30;8.90;;;;;;;2.49;81.84;99106.48;130490;1267;108756;-86
2022/01/20 05:08:30;;;;;;;12.20;8.50;;;;;;;2.51;81.82;99095.10;130420;1268;108736;-87
2022/01/20 05:11:42;;;;;;;12.40;8.10;;;;;;;2.54;81.72;99087.23;130569;1268;107827;-86
2022/01/20 05:14:48;;;;;;;12.70;8.60;;;;;;;2.56;81.65;99091.17;130415;1268;108958;-86
2022/01/20 05:17:54;;;;;;;10.40;7.40;;;;;;;2.56;81.59;99092.20;130508;1268;108869;-86
2022/01/20 05:21:00;;;;;;;10.50;7.20;;;;;;;2.54;81.46;99088.88;130528;1266;108806;-85
2022/01/20 05:24:06;;;;;;;11.10;7.20;;;;;;;2.49;81.46;99093.15;130471;1268;108767;-85
2022/01/20 05:27:12;;;;;;;11.70;7.20;;;;;;;2.48;81.39;99093.73;130446;1266;108784;-86
2022/01/20 05:30:19;;;;;;;9.40;6.60;;;;;;;2.53;81.48;99097.05;130418;1267;109005;-86
2022/01/20 05:33:53;;;;;;;9.70;6.50;;;;;;;2.59;81.39;99098.11;130076;1268;107853;-86
2022/01/20 05:36:59;;;;;;;10.30;7.10;;;;;;;2.63;81.30;99088.29;130389;1268;108904;-85
2022/01/20 05:40:06;;;;;;;11.10;7.50;;;;;;;2.61;81.14;99089.15;130373;1267;108791;-86
2022/01/20 05:43:12;;;;;;;12.10;7.30;;;;;;;2.56;81.08;99089.06;130472;1267;108778;-85
2022/01/20 05:46:22;;;;;;;12.90;7.70;;;;;;;2.51;81.12;99092.44;130462;1267;108838;-87
2022/01/20 05:49:29;;;;;;;12.60;7.40;;;;;;;2.48;81.00;99082.89;130393;1268;108797;-82
2022/01/20 05:52:41;;;;;;;9.90;6.00;;;;;;;2.45;80.91;99084.90;130537;1267;108924;-82
2022/01/20 05:55:48;;;;;;;13.20;6.20;;;;;;;2.48;81.02;99083.55;130678;1268;108889;-83
2022/01/20 05:58:53;;;;;;;10.20;6.00;;;;;;;2.50;80.65;99085.65;130511;1268;108572;-82
2022/01/20 06:02:09;;;;;;;8.80;5.80;;;;;;;2.47;80.35;99093.83;130435;1268;107687;-83
2022/01/20 06:05:15;;;;;;;19.30;11.20;;;;;;;2.39;80.22;99099.41;130453;1268;107480;-84
2022/01/20 06:08:20;;;;;;;19.10;9.40;;;;;;;2.33;80.21;99114.29;130331;1268;107591;-81
2022/01/20 06:11:26;;;;;;;37.10;14.70;;;;;;;2.32;80.38;99113.70;130450;1268;108687;-83
2022/01/20 06:14:31;;;;;;;28.30;11.60;;;;;;;2.34;80.07;99116.84;130437;1268;108647;-82
2022/01/20 06:17:38;;;;;;;21.40;14.20;;;;;;;2.36;80.28;99118.81;130214;1268;108879;-83
2022/01/20 06:20:48;;;;;;;41.60;26.60;;;;;;;2.43;80.25;99114.08;130510;1267;107592;-79
2022/01/20 06:23:54;;;;;;;67.90;34.70;;;;;;;2.49;80.05;99116.52;130783;1267;108805;-82
2022/01/20 06:27:00;;;;;;;41.50;23.20;;;;;;;2.48;79.87;99106.40;130464;1268;108972;-83
2022/01/20 06:30:07;;;;;;;28.10;17.10;;;;;;;2.45;79.92;99097.90;130487;1267;107822;-83
2022/01/20 06:33:13;;;;;;;15.20;6.80;;;;;;;2.43;79.79;99104.38;130444;1267;108808;-84
2022/01/20 06:36:23;;;;;;;117.30;48.00;;;;;;;2.30;79.41;99142.82;130503;1267;109111;-83
2022/01/20 06:39:28;;;;;;;186.60;101.40;;;;;;;1.91;81.80;99151.10;130577;1267;108936;-82
2022/01/20 06:42:34;;;;;;;103.60;40.80;;;;;;;1.46;84.39;99138.93;130482;1267;108533;-83
2022/01/20 06:45:40;;;;;;;72.30;40.60;;;;;;;1.22;84.78;99132.29;130513;1267;108774;-81
2022/01/20 06:48:48;;;;;;;4.50;2.90;;;;;;;1.00;85.88;99139.41;130570;1267;109091;-81
2022/01/20 06:52:14;;;;;;;4.20;2.20;;;;;;;0.72;90.36;99150.70;130477;1267;108844;-77
2022/01/20 06:55:21;;;;;;;7.10;4.60;;;;;;;0.74;92.05;99131.98;130409;1267;109207;-76
2022/01/20 06:58:26;;;;;;;5.00;3.00;;;;;;;0.84;90.13;99130.52;130382;1267;108859;-77
2022/01/20 07:01:32;;;;;;;56.70;34.40;;;;;;;0.96;88.41;99123.40;130343;1267;140012;-78
2022/01/20 07:04:38;;;;;;;39.90;21.70;;;;;;;0.99;87.14;99117.95;130425;1267;108753;-77
2022/01/20 07:07:44;;;;;;;7.20;4.00;;;;;;;0.97;86.39;99121.44;130477;1267;107690;-77
2022/01/20 07:10:54;;;;;;;67.30;29.80;;;;;;;0.93;86.05;99124.41;130540;1267;108729;-76
2022/01/20 07:13:59;;;;;;;496.60;175.00;;;;;;;0.87;85.97;99126.81;130283;1267;108987;-78
2022/01/20 07:17:06;;;;;;;419.20;137.40;;;;;;;0.81;86.09;99123.23;130370;1267;107673;-74
2022/01/20 07:20:14;;;;;;;320.30;86.10;;;;;;;0.81;85.57;99120.73;130334;1267;108844;-78
2022/01/20 07:23:29;;;;;;;453.20;128.00;;;;;;;0.85;85.23;99121.12;130482;1267;108742;-77
2022/01/20 07:26:40;;;;;;;128.20;50.20;;;;;;;0.89;85.16;99115.02;130575;1267;108848;-77
2022/01/20 07:29:54;;;;;;;139.40;60.20;;;;;;;0.92;85.13;99108.48;130409;1267;108823;-77
2022/01/20 07:33:03;;;;;;;208.00;79.70;;;;;;;0.95;84.86;99108.64;130515;1267;107798;-80
2022/01/20 07:36:09;;;;;;;62.90;34.00;;;;;;;0.96;84.85;99096.32;130436;1267;108909;-78
2022/01/20 07:39:15;;;;;;;22.90;9.20;;;;;;;0.97;84.69;99094.63;131293;1267;108887;-80
2022/01/20 07:42:21;;;;;;;31.90;20.50;;;;;;;1.04;84.77;99099.39;130542;1267;108986;-76
2022/01/20 07:45:36;;;;;;;8.20;4.00;;;;;;;1.14;84.44;99096.98;130744;1266;108840;-79
2022/01/20 07:48:56;;;;;;;9.80;3.60;;;;;;;1.24;84.33;99094.11;130714;1267;108652;-76
2022/01/20 07:52:02;;;;;;;8.90;2.60;;;;;;;1.29;83.94;99096.17;130392;1266;108693;-80
2022/01/20 07:55:09;;;;;;;8.30;3.10;;;;;;;1.28;83.39;99096.61;130449;1267;108781;-79
2022/01/20 07:58:15;;;;;;;7.00;2.50;;;;;;;1.29;83.44;99095.27;130446;1267;108768;-80
2022/01/20 08:01:24;;;;;;;9.30;2.10;;;;;;;1.30;83.44;99097.85;130435;1266;108758;-79
2022/01/20 08:04:35;;;;;;;7.60;2.50;;;;;;;1.35;83.10;99093.34;130436;1266;108876;-79
2022/01/20 08:07:43;;;;;;;109.50;57.40;;;;;;;1.40;82.74;99088.77;130441;1267;108797;-79
2022/01/20 08:10:48;;;;;;;245.40;99.00;;;;;;;1.49;82.45;99081.91;130500;1267;108842;-79
2022/01/20 08:13:55;;;;;;;210.60;80.10;;;;;;;1.64;82.02;99094.90;130381;1267;107794;-79
2022/01/20 08:17:01;;;;;;;173.60;85.80;;;;;;;1.80;81.83;99096.41;130372;1267;108650;-80
2022/01/20 08:20:12;;;;;;;120.20;56.60;;;;;;;1.89;81.37;99089.17;130475;1267;108867;-79
2022/01/20 08:23:18;;;;;;;54.30;27.70;;;;;;;1.93;80.77;99086.53;130463;1267;109314;-79
2022/01/20 08:26:23;;;;;;;56.30;28.00;;;;;;;1.99;80.10;99086.13;130560;1267;108801;-79
2022/01/20 08:29:30;;;;;;;40.00;22.60;;;;;;;2.01;80.26;99083.32;130643;1266;108850;-74
2022/01/20 08:32:36;;;;;;;34.30;17.70;;;;;;;2.04;79.82;99091.98;130457;1267;108810;-76
2022/01/20 08:35:55;;;;;;;27.50;14.00;;;;;;;1.97;79.02;99121.11;130425;1267;108999;-81
2022/01/20 08:42:50;;;;;;;19.30;11.30;;;;;;;0.75;87.97;99177.79;130033;1271;108891;-78
2022/01/20 08:45:55;;;;;;;42.60;24.80;;;;;;;0.20;90.47;99155.31;130484;1267;108671;-80
2022/01/20 08:49:01;;;;;;;142.90;61.80;;;;;;;-0.01;91.69;99110.86;130425;1267;108952;-79
2022/01/20 08:52:17;;;;;;;49.10;21.60;;;;;;;-0.11;91.74;99103.58;130389;1266;108747;-81
2022/01/20 08:55:28;;;;;;;24.90;8.70;;;;;;;-0.13;91.68;99111.93;130464;1267;108731;-81
2022/01/20 08:58:38;;;;;;;70.90;29.50;;;;;;;-0.03;91.39;99118.02;130453;1266;108667;-80
2022/01/20 09:01:44;;;;;;;36.20;17.10;;;;;;;0.12;90.85;99111.11;130467;1267;108729;-81
2022/01/20 09:04:51;;;;;;;7.90;3.30;;;;;;;0.17;87.42;99109.19;130406;1267;108778;-81
2022/01/20 09:08:14;;;;;;;9.70;3.30;;;;;;;0.15;86.60;99106.33;130431;1267;108632;-79
2022/01/20 09:11:37;;;;;;;15.40;6.80;;;;;;;0.21;85.20;99105.18;130502;1267;108970;-80
2022/01/20 09:18:10;;;;;;;23.60;7.80;;;;;;;0.23;82.60;99101.19;130372;1267;108692;-79
2022/01/20 09:21:21;;;;;;;33.50;10.50;;;;;;;0.28;82.33;99102.02;130362;1267;108886;-80
2022/01/20 09:24:27;;;;;;;27.80;5.90;;;;;;;0.29;81.14;99106.52;130417;1267;108836;-79
2022/01/20 09:27:33;;;;;;;15.90;3.90;;;;;;;0.27;81.03;99104.02;130371;1267;108830;-80
2022/01/20 09:30:40;;;;;;;15.20;3.40;;;;;;;0.24;80.48;99111.27;130275;1267;110035;-80
2022/01/20 09:33:46;;;;;;;4.80;2.00;;;;;;;0.27;80.37;99101.27;130345;1267;108661;-80
2022/01/20 09:36:52;;;;;;;13.70;4.80;;;;;;;0.40;80.95;99083.10;130378;1267;108892;-80
2022/01/20 09:39:57;;;;;;;197.40;69.00;;;;;;;0.55;80.71;99079.48;130304;1267;109005;-80
2022/01/20 09:43:23;;;;;;;202.80;61.50;;;;;;;0.66;79.75;99080.64;130453;1267;109828;-80
2022/01/20 09:46:31;;;;;;;72.30;19.50;;;;;;;0.75;80.30;99078.27;130381;1267;108756;-81
2022/01/20 09:49:46;;;;;;;305.20;84.60;;;;;;;0.84;79.52;99078.52;130437;1267;108773;-80
2022/01/20 09:53:02;;;;;;;1172.90;480.80;;;;;;;0.91;79.18;99076.73;130491;1267;108485;-79
2022/01/20 09:56:30;;;;;;;633.60;192.60;;;;;;;1.00;79.35;99081.77;130556;1267;108693;-81
2022/01/20 09:59:36;;;;;;;364.30;95.30;;;;;;;1.09;78.97;99072.02;130353;1267;108757;-81
2022/01/20 10:02:58;;;;;;;574.80;198.60;;;;;;;1.16;78.69;99074.61;130609;1266;108884;-81
2022/01/20 10:06:06;;;;;;;563.80;185.50;;;;;;;1.23;78.43;99077.20;130588;1267;108904;-79
2022/01/20 10:09:29;;;;;;;213.10;60.20;;;;;;;1.32;77.15;99076.64;130376;1267;108853;-78
2022/01/20 10:13:08;;;;;;;139.60;41.80;;;;;;;1.36;76.32;99070.20;130246;1267;108750;-80
2022/01/20 10:16:33;;;;;;;172.90;63.90;;;;;;;1.34;75.88;99066.64;130481;1266;108987;-80
2022/01/20 10:19:54;;;;;;;19.60;7.10;;;;;;;1.28;74.69;99063.67;130315;1267;107756;-79
2022/01/20 10:23:07;;;;;;;17.40;5.80;;;;;;;1.29;75.64;99062.48;130347;1267;108908;-79
2022/01/20 10:26:28;;;;;;;15.60;6.50;;;;;;;1.30;75.03;99051.01;130444;1266;108736;-78
2022/01/20 10:29:38;;;;;;;13.30;6.20;;;;;;;1.22;73.35;99050.80;130522;1267;108742;-81
2022/01/20 10:32:45;;;;;;;54.60;25.60;;;;;;;1.20;74.36;99053.08;130479;1267;108882;-79
2022/01/20 10:35:52;;;;;;;18.90;8.90;;;;;;;1.17;72.18;99053.98;130367;1267;109808;-80
2022/01/20 10:39:29;;;;;;;107.40;48.90;;;;;;;1.17;72.24;99055.08;130353;1267;108874;-80
2022/01/20 10:42:40;;;;;;;15.10;6.90;;;;;;;1.11;72.81;99051.39;130605;1267;109176;-81
2022/01/20 10:45:45;;;;;;;18.80;9.10;;;;;;;0.95;71.80;99052.73;130580;1267;108823;-81
2022/01/20 10:49:01;;;;;;;27.30;14.80;;;;;;;0.94;72.73;99050.73;130428;1267;107630;-80
2022/01/20 10:52:18;;;;;;;19.70;6.90;;;;;;;1.06;72.96;99046.64;130428;1266;108660;-81
2022/01/20 10:55:28;;;;;;;18.10;6.60;;;;;;;1.23;72.40;99056.69;130320;1267;108668;-81
2022/01/20 10:58:35;;;;;;;262.50;87.60;;;;;;;1.30;73.14;99045.27;130535;1267;108928;-79
2022/01/20 11:01:44;;;;;;;304.80;106.10;;;;;;;1.30;73.55;99032.27;130395;1267;109113;-79
2022/01/20 11:04:52;;;;;;;98.70;40.40;;;;;;;1.21;72.44;99044.35;130495;1267;108695;-78
2022/01/20 11:07:57;;;;;;;99.70;41.10;;;;;;;1.06;71.87;99052.42;130398;1267;108833;-79
2022/01/20 11:11:03;;;;;;;65.70;33.10;;;;;;;0.90;70.84;99045.86;130474;1267;108984;-81
2022/01/20 11:14:20;;;;;;;45.60;26.00;;;;;;;0.74;71.91;99059.68;130463;1267;108846;-79
2022/01/20 11:17:27;;;;;;;18.20;8.40;;;;;;;0.66;72.22;99067.60;130383;1267;108806;-78
2022/01/20 11:20:42;;;;;;;8.90;4.40;;;;;;;0.63;71.82;99066.80;130619;1266;108966;-80
2022/01/20 11:23:49;;;;;;;6.50;3.30;;;;;;;0.59;71.31;99070.27;130404;1267;108652;-82
2022/01/20 11:27:34;;;;;;;11.50;6.30;;;;;;;0.68;71.81;99070.98;130233;1267;108762;-80
2022/01/20 11:30:58;;;;;;;5.30;2.60;;;;;;;0.74;70.19;99077.19;130340;1267;108797;-79
2022/01/20 11:34:29;;;;;;;7.20;2.60;;;;;;;0.76;70.68;99073.50;130471;1267;106771;-79
2022/01/20 11:37:37;;;;;;;4.90;2.30;;;;;;;0.88;70.56;99078.53;130399;1267;108737;-77
2022/01/20 11:40:55;;;;;;;8.70;3.20;;;;;;;0.94;71.27;99085.03;130598;1267;108854;-79
2022/01/20 11:44:10;;;;;;;6.90;3.00;;;;;;;1.06;70.32;99083.43;130448;1267;108795;-80
2022/01/20 11:47:16;;;;;;;8.40;2.60;;;;;;;1.06;69.83;99081.34;130447;1266;107425;-79
2022/01/20 11:50:22;;;;;;;6.80;2.20;;;;;;;0.98;67.47;99090.18;130463;1267;108737;-81
2022/01/20 11:53:28;;;;;;;7.10;3.10;;;;;;;0.91;69.19;99086.14;130545;1267;106866;-80
2022/01/20 11:56:36;;;;;;;5.30;3.60;;;;;;;0.96;69.71;99089.46;130618;1267;108882;-77
2022/01/20 11:59:44;;;;;;;7.30;2.30;;;;;;;0.99;69.87;99080.32;130477;1267;108792;-79
2022/01/20 12:02:50;;;;;;;4.60;1.60;;;;;;;0.97;69.10;99082.73;130423;1266;107795;-80
2022/01/20 12:06:03;;;;;;;;;;;;;;;0.81;67.66;99077.69;130450;1267;108922;-78
2022/01/20 12:09:17;;;;;;;4.30;1.90;;;;;;;0.74;68.04;99087.65;130492;1266;108870;-79
2022/01/20 12:12:26;;;;;;;4.80;1.90;;;;;;;0.63;67.10;99079.41;130496;1267;107674;-80
2022/01/20 12:15:31;;;;;;;4.80;2.20;;;;;;;0.52;68.14;99093.89;130387;1267;108696;-79
2022/01/20 12:18:37;;;;;;;6.60;1.90;;;;;;;0.45;68.25;99098.67;130370;1267;108911;-79
2022/01/20 12:21:49;;;;;;;13.50;5.10;;;;;;;0.40;68.22;99103.45;130420;1267;108794;-79
2022/01/20 12:24:56;;;;;;;143.10;43.10;;;;;;;0.35;68.66;99098.86;130404;1267;108995;-78
2022/01/20 12:28:07;;;;;;;51.30;16.00;;;;;;;0.35;68.48;99094.50;130372;1266;108880;-79
2022/01/20 12:31:13;;;;;;;94.10;33.20;;;;;;;0.33;67.73;99091.86;130452;1267;108639;-79
2022/01/20 12:34:20;;;;;;;31.30;11.90;;;;;;;0.33;67.20;99085.05;130428;1267;108743;-79
2022/01/20 12:37:34;;;;;;;9.80;3.70;;;;;;;0.36;66.39;99088.42;130593;1267;108850;-81
2022/01/20 12:40:39;;;;;;;19.30;5.60;;;;;;;0.34;67.86;99077.45;130640;1266;108901;-79
2022/01/20 12:43:47;;;;;;;9.20;2.50;;;;;;;0.34;66.98;99083.59;130551;1266;106841;-79
2022/01/20 12:46:52;;;;;;;8.80;3.40;;;;;;;0.27;67.41;99076.42;130617;1267;108817;-79
2022/01/20 12:49:59;;;;;;;30.90;15.20;;;;;;;0.26;67.31;99078.63;130544;1267;108689;-81
2022/01/20 12:53:05;;;;;;;9.30;3.10;;;;;;;0.25;68.33;99090.23;130499;1267;108573;-80
2022/01/20 12:56:12;;;;;;;10.40;4.00;;;;;;;0.10;72.88;99093.08;130755;1267;108831;-79
2022/01/20 12:59:25;;;;;;;11.70;5.20;;;;;;;0.02;72.37;99103.16;130756;1267;108668;-79
2022/01/20 13:02:33;;;;;;;17.10;8.10;;;;;;;0.06;71.68;99102.48;130578;1267;108772;-78
2022/01/20 13:05:41;;;;;;;27.90;11.20;;;;;;;0.16;71.95;99101.34;130457;1267;108690;-78
2022/01/20 13:08:57;;;;;;;23.20;10.80;;;;;;;0.21;71.72;99104.84;130540;1267;108580;-78
2022/01/20 13:12:03;;;;;;;16.90;8.30;;;;;;;0.21;71.63;99116.71;130530;1266;108778;-78
2022/01/20 13:15:21;;;;;;;16.90;7.60;;;;;;;0.19;72.69;99119.84;130425;1264;108643;-78
2022/01/20 13:18:26;;;;;;;15.00;6.20;;;;;;;-0.02;77.86;99120.70;130402;1267;108830;-78
2022/01/20 13:21:46;;;;;;;11.50;4.90;;;;;;;-0.14;77.03;99118.58;130427;1267;108946;-77
2022/01/20 13:24:51;;;;;;;9.60;5.20;;;;;;;-0.24;74.82;99118.86;130524;1266;108601;-77
2022/01/20 13:28:00;;;;;;;164.80;54.50;;;;;;;-0.28;73.77;99110.35;130411;1267;108689;-77
2022/01/20 13:31:17;;;;;;;321.10;90.40;;;;;;;-0.25;73.47;99119.96;130375;1267;108773;-78
2022/01/20 13:34:23;;;;;;;259.30;82.60;;;;;;;-0.21;73.46;99127.33;130429;1267;108838;-75
2022/01/20 13:37:30;;;;;;;79.30;30.70;;;;;;;-0.05;73.96;99139.30;130373;1267;108437;-77
2022/01/20 13:40:36;;;;;;;26.80;10.30;;;;;;;0.08;72.78;99142.20;130388;1267;108778;-77
2022/01/20 13:47:13;;;;;;;21.80;12.10;;;;;;;0.13;72.06;99133.03;130363;1267;108734;-76
2022/01/20 13:50:20;;;;;;;13.80;4.50;;;;;;;0.17;72.05;99127.86;130366;1266;109056;-77
2022/01/20 13:53:29;;;;;;;8.50;3.40;;;;;;;0.13;70.79;99137.42;130370;1266;108978;-78
2022/01/20 13:56:35;;;;;;;6.60;3.10;;;;;;;0.01;70.86;99133.77;130418;1267;108749;-76
2022/01/20 13:59:50;;;;;;;29.00;12.90;;;;;;;-0.07;70.74;99132.08;130306;1266;108755;-77
2022/01/20 14:02:56;;;;;;;44.40;22.30;;;;;;;-0.10;70.50;99135.42;130391;1267;109093;-79
2022/01/20 14:06:02;;;;;;;35.20;15.60;;;;;;;-0.07;70.46;99138.91;130408;1267;108746;-79
2022/01/20 14:09:07;;;;;;;15.50;7.70;;;;;;;-0.08;71.06;99144.23;130336;1267;108752;-80
2022/01/20 14:12:13;;;;;;;8.00;3.10;;;;;;;-0.16;70.70;99145.88;130422;1267;107425;-79
2022/01/20 14:15:20;;;;;;;11.00;4.60;;;;;;;-0.25;70.58;99139.73;130310;1267;108789;-79
2022/01/20 14:18:31;;;;;;;8.50;2.90;;;;;;;-0.31;70.46;99146.06;130386;1267;107740;-78
2022/01/20 14:21:36;;;;;;;8.30;2.90;;;;;;;-0.35;69.91;99151.46;130340;1267;108587;-79
2022/01/20 14:24:42;;;;;;;218.20;92.10;;;;;;;-0.41;70.68;99153.96;130318;1267;107148;-79
2022/01/20 14:27:48;;;;;;;33.80;14.20;;;;;;;-0.35;70.95;99156.87;130362;1267;108889;-78
2022/01/20 14:30:53;;;;;;;349.30;116.20;;;;;;;-0.33;70.45;99151.66;130378;1267;107293;-78
2022/01/20 14:33:59;;;;;;;48.80;20.30;;;;;;;-0.35;70.70;99153.34;130305;1267;107738;-79
2022/01/20 14:37:05;;;;;;;39.40;18.10;;;;;;;-0.35;70.63;99168.55;130365;1267;108880;-78
2022/01/20 14:40:12;;;;;;;35.60;19.20;;;;;;;-0.41;70.76;99167.75;130341;1267;107264;-78
2022/01/20 14:43:20;;;;;;;13.20;5.80;;;;;;;-0.46;71.93;99172.13;130575;1267;108921;-79
2022/01/20 14:46:26;;;;;;;10.90;4.90;;;;;;;-0.66;76.50;99164.30;130562;1265;108522;-78
2022/01/20 14:49:31;;;;;;;14.50;8.60;;;;;;;-0.82;80.24;99167.66;130511;1267;108659;-79
2022/01/20 14:52:37;;;;;;;65.90;24.20;;;;;;;-0.95;75.70;99181.88;130404;1267;108610;-79
2022/01/20 14:55:43;;;;;;;16.70;6.70;;;;;;;-1.06;75.05;99180.90;130413;1266;108885;-78
2022/01/20 14:58:48;;;;;;;166.90;56.10;;;;;;;-1.11;75.15;99191.35;130475;1267;108781;-79
2022/01/20 15:01:54;;;;;;;77.90;28.80;;;;;;;-1.09;75.64;99193.70;130593;1266;108993;-79
2022/01/20 15:04:59;;;;;;;65.40;29.70;;;;;;;-1.15;75.48;99197.39;130488;1267;109046;-79
2022/01/20 15:08:06;;;;;;;46.20;21.20;;;;;;;-1.11;75.21;99201.80;130567;1266;108726;-79
2022/01/20 15:11:11;;;;;;;30.50;15.30;;;;;;;-1.09;76.09;99203.60;130600;1267;108953;-79
2022/01/20 15:14:17;;;;;;;16.60;9.10;;;;;;;-1.06;75.50;99199.34;130421;1266;108842;-78
2022/01/20 15:17:22;;;;;;;32.50;17.60;;;;;;;-0.97;75.94;99198.26;130595;1266;106831;-79
2022/01/20 15:20:29;;;;;;;13.70;6.40;;;;;;;-0.85;75.99;99201.05;130598;1267;108791;-80